createdAt,value
2019-02-20T00:02:57.316Z,63.72
2019-02-20T00:08:01.268Z,63.75
2019-02-20T00:13:05.375Z,63.85
2019-02-20T00:18:09.228Z,63.91
2019-02-20T00:23:13.264Z,64.03
2019-02-20T00:28:17.223Z,64.39
2019-02-20T00:33:21.443Z,64.49
2019-02-20T00:38:25.397Z,64.51
2019-02-20T00:43:29.415Z,64.43
2019-02-20T00:48:47.188Z,64.61
2019-02-20T00:53:55.306Z,64.83
2019-02-20T00:58:59.270Z,65.05
2019-02-20T01:04:03.398Z,65.48
2019-02-20T01:09:08.051Z,65.97
2019-02-20T01:14:12.142Z,66.27
2019-02-20T01:19:16.040Z,66.53
2019-02-20T01:24:19.929Z,66.57
2019-02-20T01:29:23.788Z,66.64
2019-02-20T01:34:27.918Z,66.67
2019-02-20T01:39:32.132Z,66.69
2019-02-20T01:44:36.127Z,66.71
2019-02-20T01:49:40.091Z,66.91
2019-02-20T01:54:44.198Z,66.90
2019-02-20T01:59:48.086Z,66.85
2019-02-20T02:04:52.036Z,66.73
2019-02-20T02:09:56.030Z,66.92
2019-02-20T02:14:59.834Z,66.94
2019-02-20T02:20:03.642Z,67.01
2019-02-20T02:25:07.460Z,66.91
2019-02-20T02:30:12.306Z,66.88
2019-02-20T02:35:16.246Z,66.84
2019-02-20T02:40:20.061Z,66.92
2019-02-20T02:45:23.929Z,66.92
2019-02-20T02:50:27.874Z,66.87
2019-02-20T02:55:31.698Z,66.90
2019-02-20T03:00:35.526Z,66.98
2019-02-20T03:05:39.434Z,67.03
2019-02-20T03:10:43.598Z,66.91
2019-02-20T03:15:47.796Z,66.95
2019-02-20T03:20:51.608Z,67.01
2019-02-20T03:25:55.406Z,66.96
2019-02-20T03:30:59.325Z,66.91
2019-02-20T03:36:03.194Z,66.80
2019-02-20T03:41:06.982Z,66.82
2019-02-20T03:46:10.821Z,66.94
2019-02-20T03:51:14.659Z,67.05
2019-02-20T03:56:18.582Z,67.06
2019-02-20T04:01:22.400Z,67.02
2019-02-20T04:06:26.234Z,66.93
2019-02-20T04:11:30.083Z,66.83
2019-02-20T04:16:33.890Z,66.95
2019-02-20T04:21:37.787Z,66.97
2019-02-20T04:26:41.665Z,66.87
2019-02-20T04:31:45.666Z,66.60
2019-02-20T04:36:49.523Z,66.48
2019-02-20T04:41:53.337Z,66.31
2019-02-20T04:46:57.261Z,66.11
2019-02-20T04:52:01.194Z,66.47
2019-02-20T04:57:04.993Z,66.65
2019-02-20T05:02:08.815Z,66.59
2019-02-20T05:07:12.711Z,66.53
2019-02-20T05:12:16.646Z,66.73
2019-02-20T05:17:20.625Z,66.59
2019-02-20T05:22:24.470Z,66.53
2019-02-20T05:27:28.380Z,66.51
2019-02-20T05:32:32.279Z,66.43
2019-02-20T05:37:36.104Z,66.36
2019-02-20T05:42:39.968Z,66.40
2019-02-20T05:47:43.794Z,66.36
2019-02-20T05:52:47.611Z,66.37
2019-02-20T05:57:51.499Z,66.48
2019-02-20T06:02:55.350Z,66.54
2019-02-20T06:07:59.139Z,66.66
2019-02-20T06:13:02.960Z,66.80
2019-02-20T06:18:06.805Z,67.01
2019-02-20T06:23:10.602Z,67.08
2019-02-20T06:28:14.446Z,66.86
2019-02-20T06:33:18.343Z,66.86
2019-02-20T06:38:22.376Z,66.81
2019-02-20T06:43:26.368Z,66.68
2019-02-20T06:48:30.266Z,66.68
2019-02-20T06:53:34.434Z,66.57
2019-02-20T06:58:38.360Z,66.67
2019-02-20T07:03:42.797Z,66.68
2019-02-20T07:09:33.515Z,66.80
2019-02-20T07:15:08.160Z,66.90
2019-02-20T07:21:08.066Z,67.30
2019-02-20T07:26:45.073Z,67.54
2019-02-20T07:31:49.074Z,67.63
2019-02-20T07:36:52.976Z,67.60
2019-02-20T07:41:56.971Z,67.66
2019-02-20T07:47:02.458Z,67.77
2019-02-20T07:52:06.455Z,67.84
2019-02-20T07:57:10.456Z,67.87
2019-02-20T08:02:14.413Z,68.08
2019-02-20T08:07:18.436Z,68.19
2019-02-20T08:12:22.426Z,68.33
2019-02-20T08:17:26.632Z,68.26
2019-02-20T08:22:30.557Z,68.20
2019-02-20T08:27:34.482Z,68.08
2019-02-20T08:32:38.486Z,68.17
2019-02-20T08:37:42.325Z,67.96
2019-02-20T08:42:46.244Z,68.00
2019-02-20T08:47:50.558Z,67.93
2019-02-20T08:52:54.530Z,67.77
2019-02-20T08:57:58.534Z,67.80
2019-02-20T09:03:02.522Z,67.90
2019-02-20T09:08:06.434Z,68.10
2019-02-20T09:13:10.384Z,68.13
2019-02-20T09:18:14.360Z,68.00
2019-02-20T09:23:18.282Z,68.32
2019-02-20T09:28:22.969Z,68.43
2019-02-20T09:33:27.391Z,68.57
2019-02-20T09:38:31.272Z,68.19
2019-02-20T09:43:35.227Z,68.30
2019-02-20T09:48:39.232Z,68.13
2019-02-20T09:53:43.254Z,67.75
2019-02-20T09:58:47.168Z,67.37
2019-02-20T10:03:51.094Z,66.85
2019-02-20T10:08:55.145Z,66.83
2019-02-20T10:13:59.184Z,66.49
2019-02-20T10:19:03.228Z,66.08
2019-02-20T10:24:07.169Z,65.80
2019-02-20T10:29:11.166Z,65.18
2019-02-20T10:34:15.152Z,65.25
2019-02-20T10:39:19.190Z,64.61
2019-02-20T10:44:23.034Z,64.74
2019-02-20T10:49:27.223Z,64.34
2019-02-20T10:54:31.148Z,64.09
2019-02-20T10:59:35.171Z,63.65
2019-02-20T11:04:39.071Z,64.03
2019-02-20T11:09:42.992Z,63.32
2019-02-20T11:14:48.913Z,63.33
2019-02-20T11:19:52.912Z,63.04
2019-02-20T11:24:56.747Z,62.61
2019-02-20T11:30:00.842Z,62.49
2019-02-20T11:35:05.787Z,61.96
2019-02-20T11:40:10.881Z,61.41
2019-02-20T11:45:15.222Z,60.33
2019-02-20T11:50:19.379Z,59.30
2019-02-20T11:55:24.042Z,58.51
2019-02-20T12:00:28.396Z,58.14
2019-02-20T12:05:32.373Z,56.73
2019-02-20T12:10:37.329Z,56.35
2019-02-20T12:15:42.192Z,54.72
2019-02-20T12:20:46.420Z,54.54
2019-02-20T12:25:50.422Z,54.94
2019-02-20T12:30:54.404Z,54.44
2019-02-20T12:35:58.291Z,53.87
2019-02-20T12:41:02.196Z,54.56
2019-02-20T12:46:06.063Z,55.13
2019-02-20T12:51:10.207Z,55.32
2019-02-20T12:56:14.172Z,54.73
2019-02-20T13:01:18.135Z,54.29
2019-02-20T13:06:22.063Z,54.19
2019-02-20T13:11:26.252Z,53.65
2019-02-20T13:16:30.238Z,53.62
2019-02-20T13:21:34.247Z,53.29
2019-02-20T13:26:41.065Z,53.60
2019-02-20T13:31:44.896Z,53.19
2019-02-20T13:36:48.960Z,53.40
2019-02-20T13:41:52.964Z,52.94
2019-02-20T13:46:56.955Z,53.06
2019-02-20T13:52:01.244Z,52.52
2019-02-20T13:57:05.458Z,52.46
2019-02-20T14:02:11.221Z,52.46
2019-02-20T14:07:15.045Z,52.75
2019-02-20T14:12:18.947Z,52.82
2019-02-20T14:17:26.758Z,53.09
2019-02-20T14:22:28.726Z,51.51
2019-02-20T14:27:33.108Z,51.99
2019-02-20T14:32:36.968Z,51.50
2019-02-20T14:37:40.980Z,51.86
2019-02-20T14:42:45.163Z,52.04
2019-02-20T14:47:48.970Z,51.79
2019-02-20T14:52:53.480Z,51.07
2019-02-20T14:57:57.462Z,51.36
2019-02-20T15:03:01.380Z,51.02
2019-02-20T15:08:05.580Z,51.12
2019-02-20T15:13:09.708Z,51.42
2019-02-20T15:18:14.116Z,51.37
2019-02-20T15:23:18.199Z,51.63
2019-02-20T15:28:22.128Z,51.76
2019-02-20T15:33:26.249Z,51.43
2019-02-20T15:38:30.183Z,51.33
2019-02-20T15:43:34.590Z,51.42
2019-02-20T15:48:38.842Z,51.55
2019-02-20T15:53:42.965Z,51.49
2019-02-20T15:58:47.047Z,51.73
2019-02-20T16:03:50.990Z,51.85
2019-02-20T16:08:55.161Z,51.57
2019-02-20T16:14:00.818Z,51.59
2019-02-20T16:19:04.790Z,51.76
2019-02-20T16:24:08.708Z,51.81
2019-02-20T16:29:13.653Z,51.90
2019-02-20T16:34:18.069Z,51.94
2019-02-20T16:39:21.924Z,51.92
2019-02-20T16:44:26.001Z,51.88
2019-02-20T16:49:29.918Z,51.83
2019-02-20T16:54:33.992Z,51.97
2019-02-20T16:59:38.286Z,52.22
2019-02-20T17:04:42.345Z,52.34
2019-02-20T17:09:46.418Z,52.39
2019-02-20T17:14:50.582Z,52.51
2019-02-20T17:19:54.842Z,52.65
2019-02-20T17:24:59.130Z,52.78
2019-02-20T17:30:03.241Z,53.02
2019-02-20T17:35:08.955Z,53.18
2019-02-20T17:40:13.699Z,53.37
2019-02-20T17:45:17.713Z,53.60
2019-02-20T17:50:21.975Z,53.83
2019-02-20T17:55:25.983Z,54.11
2019-02-20T18:00:30.415Z,54.17
2019-02-20T18:05:34.398Z,54.23
2019-02-20T18:10:38.320Z,54.40
2019-02-20T18:15:42.363Z,54.57
2019-02-20T18:20:46.335Z,54.56
2019-02-20T18:25:50.224Z,54.43
2019-02-20T18:30:54.190Z,54.46
2019-02-20T18:35:58.105Z,54.51
2019-02-20T18:41:02.650Z,54.56
2019-02-20T18:46:06.746Z,54.45
2019-02-20T18:51:10.773Z,54.32
2019-02-20T18:56:15.106Z,54.28
2019-02-20T19:01:19.211Z,54.50
2019-02-20T19:06:23.193Z,54.47
2019-02-20T19:11:40.836Z,54.27
2019-02-20T19:17:10.080Z,54.44
2019-02-20T19:22:42.513Z,54.39
2019-02-20T19:28:18.920Z,54.41
2019-02-20T19:33:56.813Z,54.52
2019-02-20T19:39:21.962Z,54.78
2019-02-20T19:44:47.733Z,55.03
2019-02-20T19:50:14.887Z,55.11
2019-02-20T19:55:31.592Z,55.11
2019-02-20T20:01:14.678Z,55.24
2019-02-20T20:07:02.671Z,55.30
2019-02-20T20:12:44.683Z,55.40
2019-02-20T20:18:21.609Z,55.44
2019-02-20T20:23:48.645Z,55.52
2019-02-20T20:29:27.427Z,55.77
2019-02-20T20:35:34.106Z,55.91
2019-02-20T20:41:14.002Z,56.03
2019-02-20T20:46:35.264Z,56.10
2019-02-20T20:52:12.018Z,56.14
2019-02-20T20:57:23.421Z,56.32
2019-02-20T21:02:41.660Z,56.23
2019-02-20T21:08:15.883Z,56.25
2019-02-20T21:13:54.240Z,56.31
2019-02-20T21:19:31.668Z,56.38
2019-02-20T21:25:23.631Z,56.30
2019-02-20T21:31:02.020Z,56.20
2019-02-20T21:36:12.778Z,56.14
2019-02-20T21:42:02.280Z,56.19
2019-02-20T21:47:16.096Z,56.35
2019-02-20T21:53:02.410Z,56.52
2019-02-20T21:58:56.700Z,56.64
2019-02-20T22:04:38.268Z,56.65
2019-02-20T22:10:09.660Z,56.84
2019-02-20T22:15:34.964Z,56.86
2019-02-20T22:21:10.636Z,56.91
2019-02-20T22:27:14.171Z,56.78
2019-02-20T22:32:39.041Z,56.65
2019-02-20T22:38:00.036Z,56.79
2019-02-20T22:43:51.588Z,56.83
2019-02-20T22:49:28.396Z,57.06
2019-02-20T22:55:31.700Z,57.19
2019-02-20T23:01:16.540Z,57.35
2019-02-20T23:06:46.246Z,57.45
2019-02-20T23:12:14.549Z,57.57
2019-02-20T23:17:18.363Z,57.58
2019-02-20T23:22:22.265Z,57.89
2019-02-20T23:27:26.328Z,58.25
2019-02-20T23:32:30.325Z,58.33
2019-02-20T23:37:34.302Z,58.70
2019-02-20T23:42:38.766Z,58.85
2019-02-20T23:47:42.770Z,59.04
2019-02-20T23:52:47.270Z,59.06
2019-02-20T23:57:51.254Z,59.26
